Time;durP1;ratioP1;P1;durP2;ratioP2;P2;SDS_P1;SDS_P2;PMS_P1;PMS_P2;Temp;Humidity;BMP_temperature;BMP_pressure;BME280_temperature;BME280_humidity;BME280_pressure;Samples;Min_cycle;Max_cycle;Signal;HPM_P1;HPM_P2
2021/08/09 00:01:38;;;;;;;11.10;3.72;;;;;;;;;;4949650;28;20090;-81
2021/08/09 00:04:08;;;;;;;10.35;4.43;;;;;;;;;;4937589;29;20590;-81
2021/08/09 00:06:35;;;;;;;8.68;4.10;;;;;;;;;;4959930;28;20155;-81
2021/08/09 00:09:05;;;;;;;12.45;3.92;;;;;;;;;;4944628;29;20051;-81
2021/08/09 00:11:32;;;;;;;8.18;3.97;;;;;;;;;;4954865;29;20078;-81
2021/08/09 00:13:59;;;;;;;7.75;3.65;;;;;;;;;;4961398;28;20075;-81
2021/08/09 00:16:26;;;;;;;8.93;3.45;;;;;;;;;;4960614;28;20634;-81
2021/08/09 00:18:54;;;;;;;6.32;3.10;;;;;;;;;;4955444;28;20477;-81
2021/08/09 00:21:21;;;;;;;9.13;3.50;;;;;;;;;;4947268;28;20125;-81
2021/08/09 00:23:49;;;;;;;10.40;3.30;;;;;;;;;;4950921;28;20532;-82
2021/08/09 00:26:19;;;;;;;9.35;3.42;;;;;;;;;;4954748;28;20142;-82
2021/08/09 00:28:46;;;;;;;6.05;3.08;;;;;;;;;;4947221;29;20712;-81
2021/08/09 00:31:13;;;;;;;8.55;2.88;;;;;;;;;;4942991;29;20448;-81
2021/08/09 00:33:40;;;;;;;9.93;3.22;;;;;;;;;;4953973;29;20130;-81
2021/08/09 00:36:08;;;;;;;7.00;3.25;;;;;;;;;;4938488;28;20060;-81
2021/08/09 00:38:35;;;;;;;9.25;3.45;;;;;;;;;;4937624;29;20572;-82
2021/08/09 00:41:02;;;;;;;6.28;2.65;;;;;;;;;;4952851;29;20090;-81
2021/08/09 00:43:29;;;;;;;6.88;2.97;;;;;;;;;;4938460;28;20074;-80
2021/08/09 00:45:59;;;;;;;4.13;2.60;;;;;;;;;;4947141;28;20047;-82
2021/08/09 00:48:27;;;;;;;7.35;3.17;;;;;;;;;;4936424;29;20062;-82
2021/08/09 00:50:54;;;;;;;7.03;2.88;;;;;;;;;;4937461;29;20063;-82
2021/08/09 00:53:21;;;;;;;5.38;2.92;;;;;;;;;;4943673;29;20090;-81
2021/08/09 00:55:51;;;;;;;7.80;2.97;;;;;;;;;;4953859;29;20047;-82
2021/08/09 00:58:19;;;;;;;9.98;3.28;;;;;;;;;;4934281;29;20744;-82
2021/08/09 01:00:46;;;;;;;6.75;2.78;;;;;;;;;;4934952;29;20047;-82
2021/08/09 01:03:14;;;;;;;5.63;2.70;;;;;;;;;;4932506;29;20084;-82
2021/08/09 01:05:42;;;;;;;5.07;2.65;;;;;;;;;;4945878;29;20134;-82
2021/08/09 01:08:12;;;;;;;6.45;2.45;;;;;;;;;;4937688;29;20449;-82
2021/08/09 01:10:50;;;;;;;8.93;3.50;;;;;;;;;;4947033;29;20075;-81
2021/08/09 01:13:32;;;;;;;5.75;2.72;;;;;;;;;;4955017;28;20427;-81
2021/08/09 01:16:08;;;;;;;10.65;2.72;;;;;;;;;;4952247;28;20066;-81
2021/08/09 01:18:37;;;;;;;7.45;2.97;;;;;;;;;;4954514;29;20051;-81
2021/08/09 01:21:05;;;;;;;9.95;2.90;;;;;;;;;;4953683;29;20071;-82
2021/08/09 01:23:52;;;;;;;8.82;2.67;;;;;;;;;;4930517;29;20130;-81
2021/08/09 01:26:35;;;;;;;5.13;2.63;;;;;;;;;;4935627;29;20106;-81
2021/08/09 01:29:06;;;;;;;11.32;3.38;;;;;;;;;;4935492;29;20067;-81
2021/08/09 01:31:43;;;;;;;4.85;2.90;;;;;;;;;;4935228;29;20079;-81
2021/08/09 01:34:12;;;;;;;10.18;2.97;;;;;;;;;;4932698;29;20103;-80
2021/08/09 01:36:41;;;;;;;5.28;3.30;;;;;;;;;;4951984;29;20126;-81
2021/08/09 01:39:09;;;;;;;8.02;3.90;;;;;;;;;;4935683;29;20047;-81
2021/08/09 01:41:37;;;;;;;6.15;2.53;;;;;;;;;;4955547;28;20146;-81
2021/08/09 01:44:04;;;;;;;8.07;2.90;;;;;;;;;;4940974;28;20082;-81
2021/08/09 01:46:41;;;;;;;7.35;2.92;;;;;;;;;;4959867;28;20133;-81
2021/08/09 01:49:11;;;;;;;3.05;2.33;;;;;;;;;;4952228;29;20767;-81
2021/08/09 01:51:39;;;;;;;6.30;3.03;;;;;;;;;;4952141;29;20230;-80
2021/08/09 01:54:08;;;;;;;5.35;2.83;;;;;;;;;;4936673;29;20093;-81
2021/08/09 01:56:35;;;;;;;8.02;2.78;;;;;;;;;;4936399;29;20147;-82
2021/08/09 01:59:02;;;;;;;7.45;2.90;;;;;;;;;;4937760;28;20086;-81
2021/08/09 02:01:30;;;;;;;5.43;2.40;;;;;;;;;;4954832;28;20794;-82
2021/08/09 02:03:57;;;;;;;9.77;4.00;;;;;;;;;;4936310;29;20551;-81
2021/08/09 02:06:24;;;;;;;9.98;2.92;;;;;;;;;;4950281;28;20462;-81
2021/08/09 02:08:52;;;;;;;4.28;3.33;;;;;;;;;;4963444;28;20067;-80
2021/08/09 02:11:25;;;;;;;3.38;2.03;;;;;;;;;;4948570;28;20059;-81
2021/08/09 02:14:02;;;;;;;7.95;2.58;;;;;;;;;;4951387;29;20138;-80
2021/08/09 02:16:35;;;;;;;5.90;2.92;;;;;;;;;;4950633;29;20043;-80
2021/08/09 02:19:31;;;;;;;6.45;2.50;;;;;;;;;;4952679;29;20051;-81
2021/08/09 02:21:59;;;;;;;6.03;3.00;;;;;;;;;;4922491;29;20086;-80
2021/08/09 02:24:34;;;;;;;6.22;3.22;;;;;;;;;;4949036;28;20083;-80
2021/08/09 02:27:09;;;;;;;4.75;2.55;;;;;;;;;;4952342;29;20158;-81
2021/08/09 02:29:39;;;;;;;6.72;2.47;;;;;;;;;;4952956;29;20061;-81
2021/08/09 02:32:08;;;;;;;7.05;2.50;;;;;;;;;;4935812;29;20138;-81
2021/08/09 02:34:37;;;;;;;6.10;3.25;;;;;;;;;;4953332;29;20078;-81
2021/08/09 02:37:05;;;;;;;4.40;2.50;;;;;;;;;;4934162;29;20771;-86
2021/08/09 02:39:36;;;;;;;6.63;2.90;;;;;;;;;;4952462;29;20556;-85
2021/08/09 02:42:03;;;;;;;7.22;3.05;;;;;;;;;;4937010;28;20122;-85
2021/08/09 02:44:32;;;;;;;7.30;2.40;;;;;;;;;;4948471;29;20146;-85
2021/08/09 02:47:01;;;;;;;7.30;2.60;;;;;;;;;;4955506;28;20055;-86
2021/08/09 02:49:28;;;;;;;4.85;2.60;;;;;;;;;;4936117;29;20134;-85
2021/08/09 02:51:55;;;;;;;7.45;2.83;;;;;;;;;;4943995;29;20531;-85
2021/08/09 02:54:23;;;;;;;8.93;3.28;;;;;;;;;;4942433;29;20082;-86
2021/08/09 02:56:51;;;;;;;5.95;2.72;;;;;;;;;;4936027;29;20089;-85
2021/08/09 02:59:19;;;;;;;4.05;2.38;;;;;;;;;;4954620;28;20153;-85
2021/08/09 03:01:46;;;;;;;7.78;3.15;;;;;;;;;;4937241;29;20075;-85
2021/08/09 03:04:15;;;;;;;4.47;2.38;;;;;;;;;;4953711;28;20062;-85
2021/08/09 03:06:43;;;;;;;7.82;2.45;;;;;;;;;;4952354;28;20080;-86
2021/08/09 03:09:11;;;;;;;10.38;2.65;;;;;;;;;;4961731;28;20056;-85
2021/08/09 03:11:41;;;;;;;4.38;2.50;;;;;;;;;;4948186;28;20075;-86
2021/08/09 03:14:22;;;;;;;5.55;2.30;;;;;;;;;;4950521;28;20052;-86
2021/08/09 03:16:52;;;;;;;6.82;2.70;;;;;;;;;;4934806;29;20090;-86
2021/08/09 03:19:19;;;;;;;5.47;3.05;;;;;;;;;;4932681;29;20421;-85
2021/08/09 03:21:50;;;;;;;13.48;3.15;;;;;;;;;;4952268;29;20460;-85
2021/08/09 03:24:21;;;;;;;5.43;2.88;;;;;;;;;;4951012;28;20055;-86
2021/08/09 03:26:53;;;;;;;7.82;2.78;;;;;;;;;;4941633;29;20138;-85
2021/08/09 03:29:24;;;;;;;8.82;2.50;;;;;;;;;;4949577;28;20713;-84
2021/08/09 03:31:52;;;;;;;7.65;2.78;;;;;;;;;;4932176;29;20051;-84
2021/08/09 03:34:21;;;;;;;5.40;2.55;;;;;;;;;;4934167;29;20078;-85
2021/08/09 03:36:51;;;;;;;5.45;2.55;;;;;;;;;;4930662;29;20072;-85
2021/08/09 03:39:19;;;;;;;6.13;2.88;;;;;;;;;;4948946;28;20043;-85
2021/08/09 03:41:47;;;;;;;4.72;2.80;;;;;;;;;;4931462;29;20047;-84
2021/08/09 03:44:14;;;;;;;6.13;2.63;;;;;;;;;;4929102;28;20075;-85
2021/08/09 03:46:41;;;;;;;4.65;2.72;;;;;;;;;;4948186;29;20070;-86
2021/08/09 03:49:09;;;;;;;6.78;2.60;;;;;;;;;;4936554;28;20058;-85
2021/08/09 03:51:40;;;;;;;5.90;2.83;;;;;;;;;;4956972;28;20139;-85
2021/08/09 03:54:08;;;;;;;6.25;2.70;;;;;;;;;;4956011;28;20130;-86
2021/08/09 03:56:36;;;;;;;6.03;2.17;;;;;;;;;;4931343;29;20131;-85
2021/08/09 03:59:03;;;;;;;4.88;2.60;;;;;;;;;;4950528;29;20450;-85
2021/08/09 04:01:36;;;;;;;10.02;3.10;;;;;;;;;;4951938;29;20666;-86
2021/08/09 04:04:05;;;;;;;8.68;2.90;;;;;;;;;;4932340;28;20051;-85
2021/08/09 04:06:33;;;;;;;5.03;2.47;;;;;;;;;;4931013;29;20093;-85
2021/08/09 04:09:00;;;;;;;4.53;2.55;;;;;;;;;;4935969;29;20814;-85
2021/08/09 04:11:27;;;;;;;11.20;3.50;;;;;;;;;;4934419;29;20102;-84
2021/08/09 04:13:57;;;;;;;4.40;2.45;;;;;;;;;;4936941;29;20043;-85
2021/08/09 04:16:24;;;;;;;8.35;3.08;;;;;;;;;;4949513;29;20051;-85
2021/08/09 04:18:51;;;;;;;4.90;2.17;;;;;;;;;;4933737;29;20067;-86
2021/08/09 04:21:19;;;;;;;5.65;2.00;;;;;;;;;;4931589;28;20682;-85
2021/08/09 04:23:46;;;;;;;10.27;2.60;;;;;;;;;;4949354;28;20089;-86
2021/08/09 04:26:15;;;;;;;6.68;2.50;;;;;;;;;;4943345;28;20147;-86
2021/08/09 04:28:43;;;;;;;7.18;2.55;;;;;;;;;;4971977;28;20063;-85
2021/08/09 04:31:10;;;;;;;6.43;2.63;;;;;;;;;;4938862;29;20086;-84
2021/08/09 04:33:46;;;;;;;4.00;2.35;;;;;;;;;;4943375;28;20290;-85
2021/08/09 04:36:16;;;;;;;5.47;2.10;;;;;;;;;;4940311;29;20090;-86
2021/08/09 04:38:43;;;;;;;11.68;2.92;;;;;;;;;;4961193;28;20046;-85
2021/08/09 04:41:12;;;;;;;5.43;2.28;;;;;;;;;;4936947;29;20058;-85
2021/08/09 04:43:41;;;;;;;9.10;2.95;;;;;;;;;;4935914;29;20484;-85
2021/08/09 04:46:08;;;;;;;4.78;2.25;;;;;;;;;;4937016;29;20478;-86
2021/08/09 04:48:35;;;;;;;9.52;4.15;;;;;;;;;;4948921;28;20087;-86
2021/08/09 04:51:03;;;;;;;8.18;2.97;;;;;;;;;;4961467;28;20042;-85
2021/08/09 04:53:30;;;;;;;9.90;3.00;;;;;;;;;;4949901;28;20055;-84
2021/08/09 04:55:57;;;;;;;4.63;2.53;;;;;;;;;;4950026;28;20481;-83
2021/08/09 04:58:25;;;;;;;6.90;2.42;;;;;;;;;;4952259;29;20138;-84
2021/08/09 05:00:53;;;;;;;7.90;2.60;;;;;;;;;;4948236;29;20039;-84
2021/08/09 05:03:21;;;;;;;5.65;2.22;;;;;;;;;;4945703;28;20126;-84
2021/08/09 05:05:48;;;;;;;7.10;2.60;;;;;;;;;;4930268;29;20056;-81
2021/08/09 05:08:15;;;;;;;3.83;2.20;;;;;;;;;;4934410;29;20078;-83
2021/08/09 05:10:42;;;;;;;5.18;2.33;;;;;;;;;;4929941;29;20055;-82
2021/08/09 05:13:10;;;;;;;7.07;2.53;;;;;;;;;;4948610;28;20143;-82
2021/08/09 05:15:39;;;;;;;4.85;2.08;;;;;;;;;;4931779;29;20457;-84
2021/08/09 05:18:11;;;;;;;4.53;2.67;;;;;;;;;;4946128;28;20102;-85
2021/08/09 05:20:39;;;;;;;8.20;2.50;;;;;;;;;;4937539;29;20055;-82
2021/08/09 05:23:07;;;;;;;8.80;2.88;;;;;;;;;;4943994;29;20133;-82
2021/08/09 05:25:35;;;;;;;5.57;2.83;;;;;;;;;;4936030;29;20078;-83
2021/08/09 05:28:02;;;;;;;8.95;2.40;;;;;;;;;;4937745;29;20082;-85
2021/08/09 05:30:29;;;;;;;9.52;2.70;;;;;;;;;;4954492;28;20138;-85
2021/08/09 05:32:56;;;;;;;4.65;2.20;;;;;;;;;;4933963;29;20051;-84
2021/08/09 05:35:27;;;;;;;4.45;1.92;;;;;;;;;;4934231;29;20079;-81
2021/08/09 05:37:55;;;;;;;8.38;2.30;;;;;;;;;;4938018;29;20126;-87
2021/08/09 05:40:31;;;;;;;10.85;2.50;;;;;;;;;;4953182;28;20078;-85
2021/08/09 05:42:58;;;;;;;6.60;2.97;;;;;;;;;;4957414;28;20078;-83
2021/08/09 05:45:27;;;;;;;9.40;2.55;;;;;;;;;;4943165;29;20863;-83
2021/08/09 05:47:55;;;;;;;7.50;3.13;;;;;;;;;;4936693;29;20134;-83
2021/08/09 05:50:22;;;;;;;4.38;2.83;;;;;;;;;;4943902;29;20083;-83
2021/08/09 05:52:49;;;;;;;8.55;2.45;;;;;;;;;;4946879;29;20055;-83
2021/08/09 05:55:17;;;;;;;8.98;3.42;;;;;;;;;;4963845;28;20704;-83
2021/08/09 05:57:44;;;;;;;12.55;2.40;;;;;;;;;;4956502;28;20059;-83
2021/08/09 06:00:11;;;;;;;14.18;2.50;;;;;;;;;;4952534;28;20056;-84
2021/08/09 06:02:43;;;;;;;7.38;2.53;;;;;;;;;;4931995;29;20086;-83
2021/08/09 06:05:11;;;;;;;5.13;2.25;;;;;;;;;;4936931;29;20137;-84
2021/08/09 06:07:38;;;;;;;9.38;2.50;;;;;;;;;;4943127;29;20047;-84
2021/08/09 06:10:07;;;;;;;6.60;2.25;;;;;;;;;;4936846;28;20453;-84
2021/08/09 06:12:36;;;;;;;8.57;2.83;;;;;;;;;;4954355;28;20138;-83
2021/08/09 06:15:05;;;;;;;6.28;2.38;;;;;;;;;;4953995;29;20073;-83
2021/08/09 06:17:33;;;;;;;7.82;3.10;;;;;;;;;;4937174;29;20049;-83
2021/08/09 06:20:00;;;;;;;4.72;2.35;;;;;;;;;;4934796;28;20086;-82
2021/08/09 06:22:27;;;;;;;8.27;2.70;;;;;;;;;;4952699;28;20079;-83
2021/08/09 06:24:54;;;;;;;4.38;2.25;;;;;;;;;;4953711;29;20567;-83
2021/08/09 06:27:30;;;;;;;6.70;1.95;;;;;;;;;;4954600;28;20078;-84
2021/08/09 06:29:58;;;;;;;5.75;2.20;;;;;;;;;;4949170;28;20047;-84
2021/08/09 06:32:25;;;;;;;5.90;2.40;;;;;;;;;;4946154;29;20086;-82
2021/08/09 06:34:52;;;;;;;7.55;2.25;;;;;;;;;;4931640;29;20055;-82
2021/08/09 06:37:19;;;;;;;10.40;2.80;;;;;;;;;;4934055;29;20078;-84
2021/08/09 06:39:46;;;;;;;5.80;2.58;;;;;;;;;;4936665;29;20078;-84
2021/08/09 06:42:13;;;;;;;7.28;2.30;;;;;;;;;;4962882;28;20055;-84
2021/08/09 06:44:41;;;;;;;7.38;2.53;;;;;;;;;;4952977;28;20496;-84
2021/08/09 06:47:08;;;;;;;5.65;2.38;;;;;;;;;;4951902;29;20138;-84
2021/08/09 06:49:35;;;;;;;8.38;2.50;;;;;;;;;;4933090;29;20091;-84
2021/08/09 06:52:02;;;;;;;14.45;2.50;;;;;;;;;;4935992;28;20130;-84
2021/08/09 06:54:31;;;;;;;5.65;2.50;;;;;;;;;;4947341;29;20138;-84
2021/08/09 06:56:58;;;;;;;5.70;2.15;;;;;;;;;;4933343;29;20130;-85
2021/08/09 06:59:25;;;;;;;8.60;2.40;;;;;;;;;;4949887;28;20486;-84
2021/08/09 07:01:53;;;;;;;12.48;2.63;;;;;;;;;;4935831;29;20053;-84
2021/08/09 07:04:21;;;;;;;7.30;2.53;;;;;;;;;;4933503;29;20563;-84
2021/08/09 07:06:50;;;;;;;9.80;2.45;;;;;;;;;;4951708;29;20708;-84
2021/08/09 07:09:17;;;;;;;10.13;2.63;;;;;;;;;;4950620;28;20130;-85
2021/08/09 07:11:53;;;;;;;6.60;2.53;;;;;;;;;;4937655;29;20078;-84
2021/08/09 07:14:29;;;;;;;8.93;2.58;;;;;;;;;;4952881;29;20134;-84
2021/08/09 07:16:58;;;;;;;9.38;2.60;;;;;;;;;;4949866;29;20057;-84
2021/08/09 07:19:25;;;;;;;10.45;2.85;;;;;;;;;;4941686;28;20463;-85
2021/08/09 07:21:53;;;;;;;7.05;2.50;;;;;;;;;;4932515;28;20142;-85
2021/08/09 07:24:20;;;;;;;7.72;2.33;;;;;;;;;;4959433;28;20082;-85
2021/08/09 07:26:48;;;;;;;10.27;3.17;;;;;;;;;;4928629;29;20134;-84
2021/08/09 07:29:16;;;;;;;9.80;2.85;;;;;;;;;;4933874;29;20146;-84
2021/08/09 07:31:44;;;;;;;9.70;3.42;;;;;;;;;;4935279;29;20129;-83
2021/08/09 07:34:12;;;;;;;7.57;2.33;;;;;;;;;;4936020;29;20059;-84
2021/08/09 07:36:51;;;;;;;8.80;2.22;;;;;;;;;;4935891;29;20103;-83
2021/08/09 07:39:18;;;;;;;7.55;2.80;;;;;;;;;;4952858;29;20070;-83
2021/08/09 07:41:45;;;;;;;11.10;3.20;;;;;;;;;;4936355;29;20130;-84
2021/08/09 07:44:12;;;;;;;8.30;2.13;;;;;;;;;;4932834;29;20142;-85
2021/08/09 07:46:39;;;;;;;9.80;2.25;;;;;;;;;;4938366;29;20058;-85
2021/08/09 07:49:13;;;;;;;11.95;2.58;;;;;;;;;;4936380;29;20068;-84
2021/08/09 07:51:43;;;;;;;7.10;2.20;;;;;;;;;;4952613;29;20055;-84
2021/08/09 07:54:11;;;;;;;10.07;2.75;;;;;;;;;;4944092;29;20134;-83
2021/08/09 07:56:38;;;;;;;8.25;2.47;;;;;;;;;;4947507;28;20126;-81
2021/08/09 07:59:06;;;;;;;9.73;2.38;;;;;;;;;;4970697;28;20086;-81
2021/08/09 08:01:33;;;;;;;6.38;2.20;;;;;;;;;;4960542;28;20063;-82
2021/08/09 08:04:15;;;;;;;13.38;3.05;;;;;;;;;;4949103;29;20416;-81
2021/08/09 08:06:42;;;;;;;5.85;2.17;;;;;;;;;;4935138;29;20547;-81
2021/08/09 08:09:22;;;;;;;3.85;2.20;;;;;;;;;;4921499;29;20102;-81
2021/08/09 08:11:51;;;;;;;8.50;2.50;;;;;;;;;;4953231;29;20051;-81
2021/08/09 08:14:19;;;;;;;7.88;2.13;;;;;;;;;;4925627;29;20048;-80
2021/08/09 08:16:46;;;;;;;8.00;2.17;;;;;;;;;;4941849;29;20078;-81
2021/08/09 08:19:14;;;;;;;9.88;2.17;;;;;;;;;;4935942;29;20047;-81
2021/08/09 08:21:41;;;;;;;5.68;2.03;;;;;;;;;;4935138;29;20717;-81
2021/08/09 08:24:11;;;;;;;5.72;1.77;;;;;;;;;;4928447;29;20058;-81
2021/08/09 08:26:38;;;;;;;7.63;2.33;;;;;;;;;;4955105;29;20661;-81
2021/08/09 08:29:10;;;;;;;5.15;2.10;;;;;;;;;;4956152;29;20055;-81
2021/08/09 08:31:38;;;;;;;4.63;1.70;;;;;;;;;;4945343;29;20043;-81
2021/08/09 08:34:05;;;;;;;8.70;2.78;;;;;;;;;;4956301;28;20063;-80
2021/08/09 08:36:32;;;;;;;5.53;1.90;;;;;;;;;;4938621;29;20683;-81
2021/08/09 08:39:00;;;;;;;7.85;2.15;;;;;;;;;;4955169;28;20053;-81
2021/08/09 08:41:27;;;;;;;11.85;2.03;;;;;;;;;;4946235;29;20130;-81
2021/08/09 08:43:54;;;;;;;9.63;2.88;;;;;;;;;;4938878;29;20130;-81
2021/08/09 08:46:28;;;;;;;6.53;1.70;;;;;;;;;;4952699;29;20536;-81
2021/08/09 08:48:58;;;;;;;5.45;1.30;;;;;;;;;;4955677;28;20055;-81
2021/08/09 08:51:25;;;;;;;12.20;2.15;;;;;;;;;;4957688;28;20129;-80
2021/08/09 08:53:52;;;;;;;10.77;1.75;;;;;;;;;;4953267;28;20093;-81
2021/08/09 08:56:21;;;;;;;7.30;1.70;;;;;;;;;;4958980;28;20723;-81
2021/08/09 08:58:48;;;;;;;4.90;1.60;;;;;;;;;;4953407;29;20126;-82
2021/08/09 09:01:34;;;;;;;3.92;1.60;;;;;;;;;;4953943;28;20720;-81
2021/08/09 09:04:18;;;;;;;15.57;1.80;;;;;;;;;;4940035;28;20047;-81
2021/08/09 09:07:02;;;;;;;2.80;1.52;;;;;;;;;;4946792;29;20134;-81
2021/08/09 09:09:30;;;;;;;12.88;2.45;;;;;;;;;;4941568;28;20102;-81
2021/08/09 09:11:58;;;;;;;7.70;1.98;;;;;;;;;;4959144;28;20051;-82
2021/08/09 09:14:26;;;;;;;5.13;1.70;;;;;;;;;;4944869;29;20785;-82
2021/08/09 09:16:53;;;;;;;8.38;1.88;;;;;;;;;;4955184;29;20035;-81
2021/08/09 09:19:38;;;;;;;5.10;1.63;;;;;;;;;;4937445;29;20154;-82
2021/08/09 09:22:07;;;;;;;5.85;1.73;;;;;;;;;;4954887;29;20176;-81
2021/08/09 09:24:34;;;;;;;5.65;1.60;;;;;;;;;;4953868;29;20137;-82
2021/08/09 09:27:09;;;;;;;5.75;2.13;;;;;;;;;;4935853;29;20082;-81
2021/08/09 09:29:37;;;;;;;6.28;1.90;;;;;;;;;;4932343;29;20055;-81
2021/08/09 09:32:14;;;;;;;3.58;1.58;;;;;;;;;;4937175;29;20485;-82
2021/08/09 09:34:52;;;;;;;8.02;1.83;;;;;;;;;;4935824;29;20195;-81
2021/08/09 09:37:38;;;;;;;5.63;1.63;;;;;;;;;;4952279;28;20106;-81
2021/08/09 09:40:09;;;;;;;5.47;1.48;;;;;;;;;;4951971;29;20074;-81
2021/08/09 09:42:38;;;;;;;7.20;1.45;;;;;;;;;;4950139;28;20448;-81
2021/08/09 09:45:18;;;;;;;16.25;2.13;;;;;;;;;;4930553;28;20069;-81
2021/08/09 09:47:45;;;;;;;3.60;1.88;;;;;;;;;;4953518;29;20078;-81
2021/08/09 09:50:24;;;;;;;3.42;1.42;;;;;;;;;;4954134;29;20492;-82
2021/08/09 09:52:55;;;;;;;4.40;2.28;;;;;;;;;;4934474;29;20134;-82
2021/08/09 09:55:22;;;;;;;7.32;1.60;;;;;;;;;;4960730;28;20684;-81
2021/08/09 09:57:49;;;;;;;7.60;1.92;;;;;;;;;;4944725;29;20126;-81
2021/08/09 10:00:18;;;;;;;6.90;2.05;;;;;;;;;;4953647;28;20149;-81
2021/08/09 10:02:46;;;;;;;3.72;1.50;;;;;;;;;;4953801;29;20481;-81
2021/08/09 10:05:14;;;;;;;9.55;1.67;;;;;;;;;;4953369;29;20085;-81
2021/08/09 10:07:42;;;;;;;5.32;1.70;;;;;;;;;;4952565;28;20055;-82
2021/08/09 10:10:11;;;;;;;9.75;1.80;;;;;;;;;;4961237;28;20078;-82
2021/08/09 10:12:38;;;;;;;8.40;1.60;;;;;;;;;;4953159;29;20082;-82
2021/08/09 10:15:06;;;;;;;3.92;1.67;;;;;;;;;;4954259;29;20138;-81
2021/08/09 10:17:36;;;;;;;5.22;1.40;;;;;;;;;;4953722;29;20094;-81
2021/08/09 10:20:08;;;;;;;8.40;2.13;;;;;;;;;;4933983;29;20118;-81
2021/08/09 10:22:36;;;;;;;3.60;1.65;;;;;;;;;;4952377;29;20087;-81
2021/08/09 10:25:05;;;;;;;5.55;1.70;;;;;;;;;;4936479;29;20138;-82
2021/08/09 10:27:48;;;;;;;4.00;1.55;;;;;;;;;;4952471;28;20474;-81
2021/08/09 10:30:22;;;;;;;5.07;1.48;;;;;;;;;;4964769;28;20532;-81
2021/08/09 10:32:56;;;;;;;3.80;1.60;;;;;;;;;;4932640;29;20048;-81
2021/08/09 10:35:38;;;;;;;6.80;2.15;;;;;;;;;;4953286;29;20353;-81
2021/08/09 10:38:11;;;;;;;5.40;1.23;;;;;;;;;;4945430;29;20419;-81
2021/08/09 10:40:39;;;;;;;7.15;2.13;;;;;;;;;;4935916;29;20079;-82
2021/08/09 10:43:06;;;;;;;11.25;1.70;;;;;;;;;;4952390;28;20142;-81
2021/08/09 10:45:40;;;;;;;5.75;2.20;;;;;;;;;;4953058;28;20055;-82
2021/08/09 10:48:11;;;;;;;5.80;1.50;;;;;;;;;;4950359;29;20079;-82
2021/08/09 10:50:40;;;;;;;4.65;1.55;;;;;;;;;;4959596;28;20469;-81
2021/08/09 10:53:43;;;;;;;4.20;1.40;;;;;;;;;;4935672;28;20070;-81
2021/08/09 10:56:30;;;;;;;4.97;1.75;;;;;;;;;;4892571;29;20048;-81
2021/08/09 10:58:58;;;;;;;10.63;1.60;;;;;;;;;;4957662;28;20106;-81
2021/08/09 11:01:26;;;;;;;4.18;1.35;;;;;;;;;;4932292;29;20047;-81
2021/08/09 11:04:03;;;;;;;3.42;2.05;;;;;;;;;;4933816;29;20043;-81
2021/08/09 11:06:41;;;;;;;8.75;1.60;;;;;;;;;;4930682;29;20052;-81
2021/08/09 11:09:27;;;;;;;7.22;1.30;;;;;;;;;;4934206;28;20149;-81
2021/08/09 11:12:13;;;;;;;5.72;1.40;;;;;;;;;;4944748;28;20079;-81
2021/08/09 11:14:59;;;;;;;2.00;1.27;;;;;;;;;;4946614;28;20055;-81
2021/08/09 11:17:28;;;;;;;5.70;1.33;;;;;;;;;;4945722;29;20046;-82
2021/08/09 11:20:12;;;;;;;3.05;1.27;;;;;;;;;;4941027;29;20559;-82
2021/08/09 11:22:39;;;;;;;9.27;1.33;;;;;;;;;;4936933;29;20137;-82
2021/08/09 11:25:23;;;;;;;5.57;1.98;;;;;;;;;;4960934;28;20604;-82
2021/08/09 11:28:11;;;;;;;5.80;1.60;;;;;;;;;;4960667;28;20078;-81
2021/08/09 11:30:42;;;;;;;4.78;2.08;;;;;;;;;;4943035;29;20496;-82
2021/08/09 11:33:19;;;;;;;6.53;2.50;;;;;;;;;;4948482;28;20134;-81
2021/08/09 11:35:49;;;;;;;10.55;2.10;;;;;;;;;;4945814;28;20057;-81
2021/08/09 11:38:17;;;;;;;3.25;1.42;;;;;;;;;;4938358;28;20111;-82
2021/08/09 11:40:46;;;;;;;8.68;1.58;;;;;;;;;;4957015;28;20504;-82
2021/08/09 11:43:14;;;;;;;3.60;1.23;;;;;;;;;;4928788;28;20075;-82
2021/08/09 11:45:42;;;;;;;3.35;1.38;;;;;;;;;;4961482;28;20149;-80
2021/08/09 11:48:10;;;;;;;10.70;1.52;;;;;;;;;;4931777;28;20048;-82
2021/08/09 11:50:40;;;;;;;6.32;1.40;;;;;;;;;;4925912;29;20079;-82
2021/08/09 11:53:08;;;;;;;9.18;1.52;;;;;;;;;;4960952;28;20051;-81
2021/08/09 11:55:36;;;;;;;6.80;1.67;;;;;;;;;;4963596;28;20046;-81
2021/08/09 11:58:04;;;;;;;4.60;1.40;;;;;;;;;;4936213;28;20649;-81
2021/08/09 12:00:41;;;;;;;9.85;1.63;;;;;;;;;;4938520;29;20182;-81
2021/08/09 12:03:09;;;;;;;4.20;1.38;;;;;;;;;;4955544;28;20051;-81
2021/08/09 12:05:37;;;;;;;5.43;1.13;;;;;;;;;;4956287;29;20059;-81
2021/08/09 12:08:05;;;;;;;7.78;1.85;;;;;;;;;;4947642;28;20131;-81
2021/08/09 12:10:40;;;;;;;3.28;1.30;;;;;;;;;;4962092;28;20130;-81
2021/08/09 12:13:22;;;;;;;3.05;1.20;;;;;;;;;;4955319;29;20090;-81
2021/08/09 12:16:08;;;;;;;6.00;1.45;;;;;;;;;;4940753;29;20071;-81
2021/08/09 12:18:35;;;;;;;7.45;1.48;;;;;;;;;;4939622;29;20683;-81
2021/08/09 12:21:09;;;;;;;8.35;1.60;;;;;;;;;;4938261;29;20071;-82
2021/08/09 12:23:50;;;;;;;4.13;1.23;;;;;;;;;;4948692;29;20126;-81
2021/08/09 12:26:21;;;;;;;3.88;1.30;;;;;;;;;;4943300;29;20105;-81
2021/08/09 12:28:52;;;;;;;3.75;1.17;;;;;;;;;;4955100;29;20134;-82
2021/08/09 12:31:40;;;;;;;4.15;1.30;;;;;;;;;;4956318;29;20059;-81
2021/08/09 12:34:09;;;;;;;3.20;1.15;;;;;;;;;;4937739;29;20051;-81
2021/08/09 12:36:38;;;;;;;4.72;1.48;;;;;;;;;;4953203;29;20047;-81
2021/08/09 12:39:06;;;;;;;4.40;1.48;;;;;;;;;;4953164;28;20075;-81
2021/08/09 12:41:34;;;;;;;4.05;1.50;;;;;;;;;;4934445;29;20467;-81
2021/08/09 12:44:03;;;;;;;8.95;1.50;;;;;;;;;;4952554;29;20427;-82
2021/08/09 12:46:31;;;;;;;3.92;1.27;;;;;;;;;;4942499;29;20083;-82
2021/08/09 12:48:58;;;;;;;2.80;1.30;;;;;;;;;;4950911;29;20051;-80
2021/08/09 12:51:26;;;;;;;5.70;1.25;;;;;;;;;;4935120;29;20075;-82
2021/08/09 12:53:53;;;;;;;4.50;1.30;;;;;;;;;;4931914;29;20459;-81
2021/08/09 12:56:23;;;;;;;4.68;1.55;;;;;;;;;;4959223;28;20079;-82
2021/08/09 12:58:50;;;;;;;3.85;1.30;;;;;;;;;;4938491;29;20134;-81
2021/08/09 13:01:18;;;;;;;2.35;1.17;;;;;;;;;;4955093;29;20138;-81
2021/08/09 13:03:45;;;;;;;3.97;1.27;;;;;;;;;;4955259;28;20055;-82
2021/08/09 13:06:15;;;;;;;3.75;1.58;;;;;;;;;;4958127;28;20082;-82
2021/08/09 13:08:42;;;;;;;6.32;1.40;;;;;;;;;;4954573;28;20051;-80
2021/08/09 13:11:09;;;;;;;6.18;1.30;;;;;;;;;;4937565;29;20134;-80
2021/08/09 13:13:38;;;;;;;6.22;1.48;;;;;;;;;;4950434;28;20162;-81
2021/08/09 13:16:05;;;;;;;4.95;1.40;;;;;;;;;;4935600;29;20484;-82
2021/08/09 13:18:33;;;;;;;4.60;1.33;;;;;;;;;;4938107;29;20054;-82
2021/08/09 13:21:00;;;;;;;4.47;1.60;;;;;;;;;;4949960;29;20047;-82
2021/08/09 13:23:27;;;;;;;6.90;1.35;;;;;;;;;;4931593;29;20071;-82
2021/08/09 13:26:02;;;;;;;5.57;1.75;;;;;;;;;;4934492;29;20134;-81
2021/08/09 13:28:36;;;;;;;8.32;1.70;;;;;;;;;;4961586;28;20504;-81
2021/08/09 13:31:03;;;;;;;5.20;1.30;;;;;;;;;;4928232;29;20110;-81
2021/08/09 13:33:30;;;;;;;5.78;1.35;;;;;;;;;;4948024;29;20675;-81
2021/08/09 13:36:03;;;;;;;8.05;1.70;;;;;;;;;;4932797;29;20055;-82
2021/08/09 13:38:33;;;;;;;7.20;1.52;;;;;;;;;;4954422;29;20174;-81
2021/08/09 13:41:00;;;;;;;7.47;1.45;;;;;;;;;;4953274;28;20058;-81
2021/08/09 13:43:28;;;;;;;7.05;1.45;;;;;;;;;;4946522;28;20095;-81
2021/08/09 13:45:56;;;;;;;7.70;1.35;;;;;;;;;;4935259;29;20058;-81
2021/08/09 13:48:23;;;;;;;4.03;1.20;;;;;;;;;;4953059;29;20055;-81
2021/08/09 13:50:52;;;;;;;6.13;1.48;;;;;;;;;;4953079;29;20157;-82
2021/08/09 13:53:21;;;;;;;3.80;1.10;;;;;;;;;;4936179;29;20716;-83
2021/08/09 13:55:48;;;;;;;3.72;1.10;;;;;;;;;;4935903;29;20047;-81
2021/08/09 13:58:16;;;;;;;3.03;1.35;;;;;;;;;;4963700;28;20137;-81
2021/08/09 14:00:44;;;;;;;4.65;1.13;;;;;;;;;;4961985;28;20047;-81
2021/08/09 14:03:12;;;;;;;4.00;1.15;;;;;;;;;;4953383;29;20054;-81
2021/08/09 14:05:43;;;;;;;3.35;1.20;;;;;;;;;;4946085;29;20110;-82
2021/08/09 14:08:10;;;;;;;2.78;1.10;;;;;;;;;;4953543;29;20134;-81
2021/08/09 14:10:38;;;;;;;10.80;1.58;;;;;;;;;;4930437;28;20070;-82
2021/08/09 14:13:08;;;;;;;4.07;1.08;;;;;;;;;;4957010;28;20055;-80
2021/08/09 14:15:37;;;;;;;5.68;1.33;;;;;;;;;;4939385;29;20111;-81
2021/08/09 14:18:05;;;;;;;2.75;1.10;;;;;;;;;;4953202;28;20561;-89
2021/08/09 14:20:32;;;;;;;3.10;1.40;;;;;;;;;;4932497;29;20056;-83
2021/08/09 14:22:59;;;;;;;5.07;1.80;;;;;;;;;;4965392;28;20074;-84
2021/08/09 14:25:26;;;;;;;5.05;1.40;;;;;;;;;;4968087;28;20129;-83
2021/08/09 14:27:53;;;;;;;5.80;1.48;;;;;;;;;;4955472;28;20142;-83
2021/08/09 14:30:20;;;;;;;4.18;1.63;;;;;;;;;;4965212;28;20079;-84
2021/08/09 14:32:49;;;;;;;2.97;1.30;;;;;;;;;;4936447;29;20074;-84
2021/08/09 14:35:16;;;;;;;5.32;1.40;;;;;;;;;;4939815;29;20051;-84
2021/08/09 14:37:52;;;;;;;4.07;1.08;;;;;;;;;;4953119;29;20053;-84
2021/08/09 14:40:20;;;;;;;4.05;1.20;;;;;;;;;;4964980;28;20051;-84
2021/08/09 14:42:47;;;;;;;3.65;1.42;;;;;;;;;;4972076;28;20138;-84
2021/08/09 14:45:15;;;;;;;4.13;1.42;;;;;;;;;;4937385;29;20057;-83
2021/08/09 14:47:42;;;;;;;6.97;1.77;;;;;;;;;;4947466;29;20508;-83
2021/08/09 14:50:12;;;;;;;4.55;1.77;;;;;;;;;;4947381;29;20128;-84
2021/08/09 14:52:39;;;;;;;3.65;1.90;;;;;;;;;;4952824;29;20133;-84
2021/08/09 14:55:07;;;;;;;6.38;1.33;;;;;;;;;;4938873;29;20139;-84
2021/08/09 14:57:34;;;;;;;5.22;2.03;;;;;;;;;;4951722;29;20138;-84